createdAt,value
2023-06-13T00:01:04.771Z,163442.66
2023-06-13T00:04:09.853Z,163420.34
2023-06-13T00:07:13.968Z,163420.34
2023-06-13T00:10:18.019Z,163400.63
2023-06-13T00:13:22.450Z,163383.59
2023-06-13T00:16:27.548Z,163374.34
2023-06-13T00:19:31.765Z,163362.56
2023-06-13T00:22:36.345Z,163365.22
2023-06-13T00:25:40.312Z,163370.44
2023-06-13T00:28:44.288Z,163358.66
2023-06-13T00:31:50.066Z,163350.75
2023-06-13T00:34:54.275Z,163338.94
2023-06-13T00:37:58.362Z,163329.75
2023-06-13T00:41:05.517Z,163308.75
2023-06-13T00:44:10.197Z,163294.34
2023-06-13T00:47:15.318Z,163275.94
2023-06-13T00:50:20.676Z,163258.91
2023-06-13T00:53:25.106Z,163228.69
2023-06-13T00:56:31.028Z,163233.97
2023-06-13T00:59:35.639Z,163228.69
2023-06-13T01:02:41.323Z,163236.63
2023-06-13T01:05:47.127Z,163236.63
2023-06-13T01:08:54.126Z,163215.59
2023-06-13T01:12:20.169Z,163199.84
2023-06-13T01:15:26.575Z,163165.72
2023-06-13T01:18:36.421Z,163168.34
2023-06-13T01:21:40.792Z,163180.13
2023-06-13T01:25:28.037Z,163176.19
2023-06-13T01:28:36.297Z,163148.69
2023-06-13T01:31:42.258Z,163121.09
2023-06-13T01:34:47.193Z,163123.78
2023-06-13T01:37:52.124Z,163118.50
2023-06-13T01:40:55.980Z,163118.50
2023-06-13T01:44:02.753Z,163113.22
2023-06-13T01:47:16.203Z,163092.22
2023-06-13T01:51:15.468Z,163102.75
2023-06-13T01:54:24.046Z,163090.94
2023-06-13T01:57:37.144Z,163080.44
2023-06-13T02:00:43.418Z,163076.47
2023-06-13T02:03:47.596Z,163067.31
2023-06-13T02:06:51.596Z,163050.22
2023-06-13T02:09:55.806Z,163047.66
2023-06-13T02:12:59.701Z,163031.91
2023-06-13T02:16:03.946Z,163022.75
2023-06-13T02:19:08.949Z,163008.28
2023-06-13T02:22:13.102Z,163022.75
2023-06-13T02:25:17.173Z,163008.28
2023-06-13T02:28:21.230Z,162989.91
2023-06-13T02:31:25.978Z,162972.84
2023-06-13T02:34:30.370Z,162968.94
2023-06-13T02:37:34.466Z,162968.94
2023-06-13T02:40:38.996Z,162957.09
2023-06-13T02:43:42.892Z,162963.66
2023-06-13T02:46:46.875Z,162946.59
2023-06-13T02:49:50.985Z,162936.13
2023-06-13T02:52:55.517Z,162923.00
2023-06-13T02:55:59.409Z,162924.34
2023-06-13T02:59:03.645Z,162900.72
2023-06-13T03:02:07.959Z,162907.28
2023-06-13T03:05:17.016Z,162878.41
2023-06-13T03:08:21.584Z,162846.94
2023-06-13T03:11:26.267Z,162801.03
2023-06-13T03:14:30.246Z,162776.09
2023-06-13T03:17:35.208Z,162781.38
2023-06-13T03:20:39.482Z,162765.66
2023-06-13T03:23:43.521Z,162770.88
2023-06-13T03:26:48.069Z,162764.31
2023-06-13T03:29:52.219Z,162735.47
2023-06-13T03:32:56.684Z,162735.47
2023-06-13T03:36:01.906Z,162741.97
2023-06-13T03:39:06.228Z,162734.16
2023-06-13T03:42:11.287Z,162745.97
2023-06-13T03:45:16.963Z,162761.72
2023-06-13T03:48:21.007Z,162777.44
2023-06-13T03:51:24.946Z,162797.06
2023-06-13T03:54:29.227Z,162828.59
2023-06-13T03:57:33.516Z,162852.16
2023-06-13T04:00:40.380Z,162863.97
2023-06-13T04:03:45.486Z,162845.66
2023-06-13T04:06:50.372Z,162840.38
2023-06-13T04:09:54.495Z,162866.63
2023-06-13T04:12:58.714Z,162873.19
2023-06-13T04:16:02.981Z,162895.47
2023-06-13T04:19:08.322Z,162909.91
2023-06-13T04:22:12.918Z,162920.41
2023-06-13T04:25:18.146Z,162947.94
2023-06-13T04:28:23.273Z,162968.94
2023-06-13T04:31:27.768Z,162966.34
2023-06-13T04:34:32.825Z,162974.19
2023-06-13T04:37:41.217Z,163010.91
2023-06-13T04:40:45.398Z,163031.91
2023-06-13T04:43:49.115Z,163035.81
2023-06-13T04:46:58.803Z,163051.56
2023-06-13T04:50:02.764Z,163066.03
2023-06-13T04:53:09.168Z,163073.91
2023-06-13T04:56:13.056Z,163097.50
2023-06-13T04:59:17.496Z,163109.31
2023-06-13T05:02:21.986Z,163130.28
2023-06-13T05:05:26.307Z,163144.75
2023-06-13T05:08:31.495Z,163164.41
2023-06-13T05:11:35.916Z,163188.03
2023-06-13T05:14:41.285Z,163218.22
2023-06-13T05:17:46.772Z,163236.63
2023-06-13T05:20:51.223Z,163252.31
2023-06-13T05:23:55.384Z,163257.63
2023-06-13T05:27:00.745Z,163273.38
2023-06-13T05:30:12.693Z,163290.41
2023-06-13T05:33:16.613Z,163312.72
2023-06-13T05:36:20.793Z,163341.56
2023-06-13T05:39:25.144Z,163358.66
2023-06-13T05:42:29.189Z,163367.84
2023-06-13T05:45:33.012Z,163396.72
2023-06-13T05:48:36.908Z,163430.88
2023-06-13T05:51:41.158Z,163471.53
2023-06-13T05:54:45.889Z,163488.63
2023-06-13T05:57:52.352Z,163501.75
2023-06-13T06:00:58.591Z,163535.88
2023-06-13T06:04:02.879Z,163569.97
2023-06-13T06:07:06.871Z,163598.91
2023-06-13T06:10:12.295Z,163625.13
2023-06-13T06:13:16.546Z,163661.91
2023-06-13T06:16:21.323Z,163682.91
2023-06-13T06:19:25.652Z,163701.28
2023-06-13T06:22:30.632Z,163734.16
2023-06-13T06:25:34.993Z,163764.38
2023-06-13T06:28:40.100Z,163868.09
2023-06-13T06:31:43.950Z,163971.91
2023-06-13T06:34:48.040Z,164041.50
2023-06-13T06:37:52.021Z,164084.88
2023-06-13T06:40:56.044Z,164119.06
2023-06-13T06:44:00.393Z,164142.72
2023-06-13T06:47:04.811Z,164179.47
2023-06-13T06:50:09.168Z,164209.72
2023-06-13T06:53:13.233Z,164278.06
2023-06-13T06:56:17.159Z,164350.38
2023-06-13T06:59:21.396Z,164310.94
2023-06-13T07:02:25.789Z,164360.88
2023-06-13T07:05:30.149Z,164423.94
2023-06-13T07:08:34.300Z,164458.16
2023-06-13T07:11:38.494Z,164540.94
2023-06-13T07:14:42.640Z,164531.78
2023-06-13T07:17:47.292Z,164579.06
2023-06-13T07:20:51.630Z,164643.56
2023-06-13T07:24:06.837Z,164644.81
2023-06-13T07:27:12.212Z,164832.88
2023-06-13T07:30:17.091Z,165123.63
2023-06-13T07:33:24.388Z,165384.16
2023-06-13T07:36:31.282Z,165677.72
2023-06-13T07:39:35.977Z,165787.03
2023-06-13T07:42:40.451Z,165651.41
2023-06-13T07:45:47.601Z,165492.09
2023-06-13T07:48:55.113Z,165550.03
2023-06-13T07:51:58.861Z,165790.97
2023-06-13T07:55:03.703Z,149577.94
2023-06-13T07:58:09.492Z,123226.69
2023-06-13T08:01:14.219Z,110596.94
2023-06-13T08:04:19.424Z,103626.31
2023-06-13T08:07:23.392Z,96669.22
2023-06-13T08:10:29.199Z,101639.28
2023-06-13T08:13:33.677Z,99317.69
2023-06-13T08:16:40.686Z,117907.22
2023-06-13T08:19:49.806Z,120903.94
2023-06-13T08:22:54.374Z,116248.22
2023-06-13T08:25:59.041Z,122895.56
2023-06-13T08:29:03.971Z,134559.56
2023-06-13T08:32:08.985Z,144240.94
2023-06-13T08:35:14.264Z,155838.94
2023-06-13T08:38:18.942Z,150252.91
2023-06-13T08:41:23.714Z,132890.41
2023-06-13T08:44:28.161Z,119574.75
2023-06-13T08:47:37.957Z,129889.31
2023-06-13T08:50:44.358Z,129558.03
2023-06-13T08:53:57.187Z,127892.75
2023-06-13T08:57:04.672Z,148585.59
2023-06-13T09:00:13.200Z,161478.28
2023-06-13T09:03:18.479Z,165382.63
2023-06-13T09:06:23.574Z,154272.31
2023-06-13T09:09:28.144Z,152935.91
2023-06-13T09:12:32.331Z,153606.50
2023-06-13T09:15:36.410Z,153939.41
2023-06-13T09:18:44.169Z,152261.78
2023-06-13T09:21:48.482Z,149918.97
2023-06-13T09:24:52.694Z,157191.16
2023-06-13T09:27:58.119Z,157996.69
2023-06-13T09:31:02.450Z,155278.34
2023-06-13T09:34:09.348Z,156538.84
2023-06-13T09:37:13.565Z,165893.69
2023-06-13T09:40:17.679Z,165654.00
2023-06-13T09:43:23.430Z,165507.94
2023-06-13T09:46:29.103Z,165351.25
2023-06-13T09:49:41.662Z,165302.59
2023-06-13T09:52:53.111Z,165269.72
2023-06-13T09:55:58.067Z,165205.19
2023-06-13T09:59:03.361Z,165302.59
2023-06-13T10:02:07.873Z,165431.56
2023-06-13T10:05:13.679Z,165514.50
2023-06-13T10:08:18.329Z,165584.25
2023-06-13T10:11:26.444Z,165659.31
2023-06-13T10:14:33.437Z,165602.69
2023-06-13T10:17:41.870Z,165557.97
2023-06-13T10:20:49.169Z,165552.66
2023-06-13T10:23:56.265Z,165618.50
2023-06-13T10:27:02.515Z,165613.19
2023-06-13T10:30:22.561Z,165555.28
2023-06-13T10:33:45.517Z,165447.34
2023-06-13T10:36:55.766Z,165513.16
2023-06-13T10:40:05.957Z,165531.59
2023-06-13T10:43:21.875Z,165546.03
2023-06-13T10:46:26.411Z,165489.47
2023-06-13T10:49:42.070Z,165421.00
2023-06-13T10:52:49.231Z,165299.91
2023-06-13T10:56:01.199Z,165147.31
2023-06-13T10:59:09.389Z,165130.22
2023-06-13T11:02:17.660Z,165109.16
2023-06-13T11:05:29.498Z,165169.69
2023-06-13T11:08:41.477Z,165273.63
2023-06-13T11:11:47.187Z,165388.13
2023-06-13T11:14:50.903Z,165476.34
2023-06-13T11:18:10.343Z,165478.91
2023-06-13T11:21:14.819Z,165407.88
2023-06-13T11:24:20.697Z,165392.09
2023-06-13T11:27:25.485Z,165467.09
2023-06-13T11:30:29.523Z,165451.31
2023-06-13T11:33:41.327Z,165384.16
2023-06-13T11:36:46.538Z,165355.22
2023-06-13T11:40:16.875Z,165305.22
2023-06-13T11:43:19.336Z,165292.03
2023-06-13T11:46:23.762Z,165244.72
2023-06-13T11:49:28.101Z,165284.16
2023-06-13T11:52:32.482Z,165289.41
2023-06-13T11:55:37.062Z,165276.25
2023-06-13T11:58:41.580Z,165240.75
2023-06-13T12:01:53.874Z,165261.78
2023-06-13T12:04:58.418Z,165276.25
2023-06-13T12:08:03.699Z,165246.00
2023-06-13T12:11:16.529Z,165248.63
2023-06-13T12:14:30.118Z,165224.94
2023-06-13T12:17:34.863Z,165223.63
2023-06-13T12:20:52.906Z,165193.38
2023-06-13T12:23:58.364Z,165177.56
2023-06-13T12:27:03.628Z,165174.94
2023-06-13T12:30:12.325Z,165173.66
2023-06-13T12:33:20.081Z,165243.38
2023-06-13T12:36:29.440Z,165310.47
2023-06-13T12:39:34.242Z,165348.69
2023-06-13T12:42:43.466Z,165355.22
2023-06-13T12:45:47.403Z,165385.50
2023-06-13T12:48:51.870Z,165384.16
2023-06-13T12:51:55.987Z,165385.50
2023-06-13T12:55:04.286Z,165382.84
2023-06-13T12:58:27.608Z,165378.88
2023-06-13T13:01:32.074Z,165397.34
2023-06-13T13:04:38.451Z,165376.25
2023-06-13T13:07:42.251Z,165331.56
2023-06-13T13:10:49.615Z,165306.53
2023-06-13T13:13:53.691Z,165292.03
2023-06-13T13:16:58.101Z,165289.41
2023-06-13T13:20:02.694Z,165338.13
2023-06-13T13:23:06.994Z,165367.03
2023-06-13T13:26:11.340Z,165284.16
2023-06-13T13:29:16.666Z,165278.88
2023-06-13T13:32:20.836Z,165263.13
2023-06-13T13:35:25.109Z,165284.16
2023-06-13T13:38:30.272Z,165342.03
2023-06-13T13:41:34.664Z,165347.34
2023-06-13T13:44:38.730Z,165407.88
2023-06-13T13:47:43.199Z,165390.78
2023-06-13T13:50:48.184Z,165373.69
2023-06-13T13:53:52.349Z,165352.59
2023-06-13T13:56:59.782Z,165328.88
2023-06-13T14:00:05.774Z,165336.81
2023-06-13T14:03:10.056Z,165301.25
2023-06-13T14:06:14.714Z,165256.53
2023-06-13T14:09:18.759Z,165230.19
2023-06-13T14:12:23.043Z,165230.19
2023-06-13T14:15:27.679Z,165206.53
2023-06-13T14:18:31.655Z,165195.97
2023-06-13T14:21:35.785Z,165139.44
2023-06-13T14:24:39.964Z,165051.28
2023-06-13T14:27:44.069Z,165035.47
2023-06-13T14:30:48.188Z,165028.88
2023-06-13T14:33:52.706Z,165030.22
2023-06-13T14:36:57.040Z,165031.56
2023-06-13T14:40:01.760Z,165074.94
2023-06-13T14:43:07.167Z,165072.31
2023-06-13T14:46:12.735Z,165070.97
2023-06-13T14:49:16.901Z,165072.31
2023-06-13T14:52:20.797Z,165076.28
2023-06-13T14:55:24.815Z,165103.91
2023-06-13T14:58:29.126Z,165131.56
2023-06-13T15:01:35.773Z,165113.13
2023-06-13T15:04:40.422Z,165127.59
2023-06-13T15:07:44.499Z,165132.81
2023-06-13T15:10:48.645Z,165092.03
2023-06-13T15:13:52.784Z,165086.78
2023-06-13T15:16:56.932Z,165010.50
2023-06-13T15:20:00.914Z,164974.94
2023-06-13T15:23:04.988Z,164969.75
2023-06-13T15:26:09.321Z,164942.09
2023-06-13T15:29:13.645Z,164951.31
2023-06-13T15:32:20.516Z,164948.69
2023-06-13T15:35:25.099Z,164944.72
2023-06-13T15:38:30.012Z,164964.44
2023-06-13T15:41:38.078Z,164973.66
2023-06-13T15:44:43.732Z,164957.84
2023-06-13T15:47:49.536Z,164947.34
2023-06-13T15:50:53.955Z,164921.03
2023-06-13T15:53:58.386Z,164924.94
2023-06-13T15:57:03.788Z,164926.28
2023-06-13T16:00:08.572Z,164923.72
2023-06-13T16:03:12.709Z,164911.81
2023-06-13T16:06:16.693Z,164882.88
2023-06-13T16:09:21.596Z,164874.97
2023-06-13T16:12:26.031Z,164868.44
2023-06-13T16:15:32.352Z,164823.69
2023-06-13T16:18:38.303Z,164828.94
2023-06-13T16:21:42.552Z,164814.47
2023-06-13T16:24:47.002Z,164789.50
2023-06-13T16:27:50.811Z,164797.38
2023-06-13T16:30:55.726Z,164801.34
2023-06-13T16:34:01.422Z,164792.13
2023-06-13T16:37:05.927Z,164781.63
2023-06-13T16:40:10.720Z,164778.97
2023-06-13T16:43:14.926Z,164801.34
2023-06-13T16:46:19.038Z,164821.06
2023-06-13T16:49:23.407Z,164832.88
2023-06-13T16:52:27.649Z,164809.22
2023-06-13T16:55:31.632Z,164828.94
2023-06-13T16:58:35.946Z,164839.50
2023-06-13T17:01:40.356Z,164805.25
2023-06-13T17:04:44.400Z,164778.97
2023-06-13T17:07:48.646Z,164739.50
2023-06-13T17:10:52.570Z,164734.25
2023-06-13T17:13:56.791Z,164689.59
2023-06-13T17:17:01.122Z,164668.53
2023-06-13T17:20:06.974Z,164640.88
2023-06-13T17:23:11.078Z,164601.47
2023-06-13T17:26:14.697Z,164581.75
2023-06-13T17:29:18.635Z,164543.63
2023-06-13T17:32:23.045Z,164523.84
2023-06-13T17:35:27.323Z,164487.06
2023-06-13T17:38:31.067Z,164463.41
2023-06-13T17:41:34.979Z,164460.78
2023-06-13T17:44:39.160Z,164456.88
2023-06-13T17:47:43.619Z,164438.44
2023-06-13T17:50:47.945Z,164425.28
2023-06-13T17:53:54.102Z,164426.63
2023-06-13T17:56:58.018Z,164413.44
2023-06-13T18:00:02.534Z,164402.91
2023-06-13T18:03:07.073Z,164395.03
2023-06-13T18:06:12.555Z,164347.75
2023-06-13T18:09:16.540Z,164321.41
2023-06-13T18:12:22.524Z,164308.31
2023-06-13T18:15:26.986Z,164285.97
2023-06-13T18:18:31.243Z,164261.00
2023-06-13T18:21:35.605Z,164255.75
2023-06-13T18:24:39.837Z,164242.56
2023-06-13T18:27:43.928Z,164247.88
2023-06-13T18:30:48.114Z,164213.69
2023-06-13T18:33:52.755Z,164216.31
2023-06-13T18:36:56.734Z,164178.16
2023-06-13T18:40:01.417Z,164163.75
2023-06-13T18:43:05.876Z,164144.06
2023-06-13T18:46:09.795Z,164132.19
2023-06-13T18:49:14.606Z,164100.66
2023-06-13T18:52:18.592Z,164112.50
2023-06-13T18:55:22.815Z,164109.88
2023-06-13T18:58:26.591Z,164088.84
2023-06-13T19:01:34.487Z,164078.31
2023-06-13T19:04:39.026Z,164036.25
2023-06-13T19:07:43.682Z,164037.59
2023-06-13T19:10:49.118Z,164034.97
2023-06-13T19:13:54.048Z,163982.41
2023-06-13T19:16:58.188Z,163978.44
2023-06-13T19:20:02.681Z,163979.75
2023-06-13T19:23:06.735Z,163964.03
2023-06-13T19:26:10.934Z,163953.50
2023-06-13T19:29:14.898Z,163924.56
2023-06-13T19:32:18.915Z,163919.38
2023-06-13T19:35:23.087Z,163887.84
2023-06-13T19:38:27.297Z,163872.06
2023-06-13T19:41:31.536Z,163845.75
2023-06-13T19:44:35.576Z,163812.91
2023-06-13T19:47:40.560Z,163769.56
2023-06-13T19:50:47.403Z,163751.22
2023-06-13T19:53:51.219Z,163747.28
2023-06-13T19:56:55.640Z,163707.88
2023-06-13T19:59:59.926Z,163690.78
2023-06-13T20:03:04.147Z,163667.16
2023-06-13T20:06:08.622Z,163648.81
2023-06-13T20:09:12.512Z,163625.13
2023-06-13T20:12:16.728Z,163643.56
2023-06-13T20:15:20.983Z,163623.84
2023-06-13T20:18:24.879Z,163608.09
2023-06-13T20:21:29.008Z,163589.72
2023-06-13T20:24:33.375Z,163584.47
2023-06-13T20:27:38.973Z,163583.13
2023-06-13T20:30:43.545Z,163548.97
2023-06-13T20:33:47.340Z,163533.22
2023-06-13T20:36:51.629Z,163525.38
2023-06-13T20:40:00.482Z,163530.59
2023-06-13T20:43:05.033Z,163505.66
2023-06-13T20:46:09.523Z,163504.38
2023-06-13T20:49:14.795Z,163486.00
2023-06-13T20:52:19.233Z,163457.16
2023-06-13T20:55:23.908Z,163444.00
2023-06-13T20:58:30.077Z,163411.16
2023-06-13T21:01:34.369Z,163378.31
2023-06-13T21:04:38.875Z,163361.31
2023-06-13T21:07:43.370Z,163371.78
2023-06-13T21:10:47.260Z,163336.38
2023-06-13T21:13:51.825Z,163321.91
2023-06-13T21:16:55.956Z,163323.25
2023-06-13T21:20:00.113Z,163324.53
2023-06-13T21:23:04.113Z,163306.16
2023-06-13T21:26:07.932Z,163278.53
2023-06-13T21:29:11.866Z,163266.75
2023-06-13T21:32:15.818Z,163253.59
2023-06-13T21:38:29.755Z,163228.69
2023-06-13T21:41:34.106Z,163223.50
2023-06-13T21:44:37.779Z,163218.22
2023-06-13T21:47:41.891Z,163210.34
2023-06-13T21:50:45.957Z,163209.03
2023-06-13T21:53:50.410Z,163203.75
2023-06-13T21:56:54.648Z,163189.31
2023-06-13T21:59:58.845Z,163190.66
2023-06-13T22:03:02.797Z,163163.13
2023-06-13T22:06:07.165Z,163142.09
2023-06-13T22:09:15.234Z,163110.63
2023-06-13T22:12:19.272Z,163063.34
2023-06-13T22:15:23.851Z,163038.44
2023-06-13T22:18:29.320Z,163008.28
2023-06-13T22:21:33.651Z,162961.06
2023-06-13T22:24:37.909Z,162937.41
2023-06-13T22:27:42.154Z,162934.81
2023-06-13T22:30:46.172Z,162920.41
2023-06-13T22:33:50.672Z,162882.34
2023-06-13T22:36:54.239Z,162887.59
2023-06-13T22:39:58.173Z,162875.78
2023-06-13T22:43:01.997Z,162884.97
2023-06-13T22:46:06.899Z,162850.84
2023-06-13T22:49:12.172Z,162856.13
2023-06-13T22:52:16.190Z,162846.94
2023-06-13T22:55:20.915Z,162840.38
2023-06-13T22:58:25.282Z,162831.22
2023-06-13T23:01:33.736Z,162823.31
2023-06-13T23:04:37.846Z,162801.03
2023-06-13T23:07:41.919Z,162782.66
2023-06-13T23:10:46.252Z,162772.16
2023-06-13T23:13:50.619Z,162756.44
2023-06-13T23:16:55.444Z,162752.53
2023-06-13T23:19:59.352Z,162755.09
2023-06-13T23:23:03.311Z,162753.88
2023-06-13T23:26:09.297Z,162740.69
2023-06-13T23:29:13.776Z,162713.13
2023-06-13T23:32:19.254Z,162698.72
2023-06-13T23:35:25.657Z,162705.28
2023-06-13T23:38:29.801Z,162672.50
2023-06-13T23:41:34.086Z,162658.09
2023-06-13T23:44:38.179Z,162655.44
2023-06-13T23:47:42.491Z,162637.16
2023-06-13T23:50:46.849Z,162635.81
2023-06-13T23:53:50.990Z,162620.09
2023-06-13T23:56:55.539Z,162609.59
2023-06-13T23:59:59.284Z,162601.69
